createdAt,value
2017-07-27T00:00:11.653Z,64.9
2017-07-27T00:01:14.099Z,64.9
2017-07-27T00:02:16.535Z,65
2017-07-27T00:03:18.641Z,65
2017-07-27T00:04:21.103Z,65
2017-07-27T00:05:23.538Z,65
2017-07-27T00:06:25.651Z,65.1
2017-07-27T00:07:28.091Z,65.1
2017-07-27T00:08:30.492Z,65.1
2017-07-27T00:09:32.587Z,65.2
2017-07-27T00:10:34.797Z,65.1
2017-07-27T00:11:36.915Z,65.2
2017-07-27T00:12:39.009Z,65.2
2017-07-27T00:13:41.104Z,65.1
2017-07-27T00:14:43.212Z,65.2
2017-07-27T00:15:45.326Z,65.1
2017-07-27T00:16:47.442Z,65.2
2017-07-27T00:17:49.551Z,65.2
2017-07-27T00:18:51.643Z,65.2
2017-07-27T00:19:54.127Z,65.2
2017-07-27T00:20:56.235Z,65.1
2017-07-27T00:21:58.341Z,65.1
2017-07-27T00:23:00.443Z,65.2
2017-07-27T00:24:03.026Z,65.2
2017-07-27T00:25:05.149Z,65.2
2017-07-27T00:26:07.570Z,65.3
2017-07-27T00:27:09.685Z,65.3
2017-07-27T00:28:11.799Z,65.3
2017-07-27T00:29:14.237Z,65.4
2017-07-27T00:30:16.342Z,65.4
2017-07-27T00:31:18.774Z,65.4
2017-07-27T00:32:21.236Z,65.4
2017-07-27T00:33:23.713Z,65.5
2017-07-27T00:34:26.140Z,65.4
2017-07-27T00:35:28.590Z,65.4
2017-07-27T00:36:30.691Z,65.3
2017-07-27T00:37:32.782Z,65.3
2017-07-27T00:38:34.890Z,65.3
2017-07-27T00:39:37.325Z,65.2
2017-07-27T00:40:39.776Z,65.1
2017-07-27T00:41:41.907Z,65.2
2017-07-27T00:42:44.006Z,65.2
2017-07-27T00:43:46.128Z,65.2
2017-07-27T00:44:48.214Z,65.3
2017-07-27T00:45:50.314Z,65.4
2017-07-27T00:46:52.438Z,65.4
2017-07-27T00:47:54.884Z,65.5
2017-07-27T00:48:57.326Z,65.5
2017-07-27T00:49:59.425Z,65.4
2017-07-27T00:51:01.877Z,65.6
2017-07-27T00:52:03.990Z,65.5
2017-07-27T00:53:06.429Z,65.5
2017-07-27T00:54:08.866Z,65.5
2017-07-27T00:55:11.112Z,65.5
2017-07-27T00:56:13.555Z,65.6
2017-07-27T00:57:16.019Z,65.6
2017-07-27T00:58:18.121Z,65.7
2017-07-27T00:59:20.562Z,65.7
2017-07-27T01:00:22.666Z,65.8
2017-07-27T01:01:24.773Z,65.7
2017-07-27T01:02:27.228Z,65.7
2017-07-27T01:03:29.336Z,65.7
2017-07-27T01:04:31.774Z,65.8
2017-07-27T01:05:33.876Z,65.8
2017-07-27T01:06:35.964Z,65.8
2017-07-27T01:07:38.409Z,65.7
2017-07-27T01:08:40.867Z,65.8
2017-07-27T01:09:42.959Z,65.8
2017-07-27T01:10:45.063Z,65.8
2017-07-27T01:11:47.861Z,65.8
2017-07-27T01:12:49.966Z,65.8
2017-07-27T01:13:52.415Z,65.8
2017-07-27T01:14:54.506Z,65.8
2017-07-27T01:15:57.297Z,65.9
2017-07-27T01:17:00.112Z,65.9
2017-07-27T01:18:02.883Z,66
2017-07-27T01:19:05.334Z,66
2017-07-27T01:20:07.448Z,66
2017-07-27T01:21:09.889Z,66
2017-07-27T01:22:11.992Z,66
2017-07-27T01:23:14.094Z,66
2017-07-27T01:24:16.563Z,66.1
2017-07-27T01:25:19.341Z,66.1
2017-07-27T01:26:21.450Z,66.2
2017-07-27T01:27:23.555Z,66.3
2017-07-27T01:28:26.023Z,66.2
2017-07-27T01:29:28.129Z,66.2
2017-07-27T01:30:30.228Z,66.1
2017-07-27T01:31:32.341Z,66.1
2017-07-27T01:32:34.426Z,66.2
2017-07-27T01:33:37.233Z,66.2
2017-07-27T01:34:39.677Z,66.2
2017-07-27T01:35:41.777Z,66.2
2017-07-27T01:36:44.225Z,66.2
2017-07-27T01:37:46.323Z,66.2
2017-07-27T01:38:49.109Z,66.2
2017-07-27T01:39:51.589Z,66.4
2017-07-27T01:40:54.360Z,66.4
2017-07-27T01:41:57.156Z,66.3
2017-07-27T01:42:59.252Z,66.4
2017-07-27T01:44:01.689Z,66.4
2017-07-27T01:45:04.447Z,66.4
2017-07-27T01:46:06.472Z,66.4
2017-07-27T01:47:08.831Z,66.4
2017-07-27T01:48:10.853Z,66.5
2017-07-27T01:49:12.881Z,66.5
2017-07-27T01:50:14.906Z,66.5
2017-07-27T01:51:16.928Z,66.5
2017-07-27T01:52:18.949Z,66.5
2017-07-27T01:53:21.302Z,66.4
2017-07-27T01:54:23.323Z,66.5
2017-07-27T01:55:25.685Z,66.5
2017-07-27T01:56:27.709Z,66.4
2017-07-27T01:57:29.725Z,66.4
2017-07-27T01:58:31.756Z,66.4
2017-07-27T01:59:33.799Z,66.4
2017-07-27T02:00:36.169Z,66.4
2017-07-27T02:01:38.187Z,66.4
2017-07-27T02:02:40.552Z,66.5
2017-07-27T02:03:42.932Z,66.4
2017-07-27T02:04:45.637Z,66.5
2017-07-27T02:05:48.336Z,66.5
2017-07-27T02:06:50.359Z,66.5
2017-07-27T02:07:52.373Z,66.6
2017-07-27T02:08:54.399Z,66.6
2017-07-27T02:09:56.423Z,66.7
2017-07-27T02:10:58.445Z,66.7
2017-07-27T02:12:00.464Z,66.8
2017-07-27T02:13:02.811Z,66.7
2017-07-27T02:14:05.181Z,66.7
2017-07-27T02:15:07.957Z,66.8
2017-07-27T02:16:10.307Z,66.7
2017-07-27T02:17:12.658Z,66.7
2017-07-27T02:18:14.681Z,66.8
2017-07-27T02:19:16.699Z,66.8
2017-07-27T02:20:19.066Z,66.9
2017-07-27T02:21:21.420Z,66.9
2017-07-27T02:22:23.442Z,66.9
2017-07-27T02:23:25.466Z,66.9
2017-07-27T02:24:27.825Z,67
2017-07-27T02:25:29.855Z,66.8
2017-07-27T02:26:31.880Z,66.9
2017-07-27T02:27:33.898Z,66.8
2017-07-27T02:28:36.264Z,66.8
2017-07-27T02:29:38.281Z,66.9
2017-07-27T02:30:40.304Z,66.8
2017-07-27T02:31:42.316Z,66.9
2017-07-27T02:32:44.340Z,66.8
2017-07-27T02:33:46.364Z,66.8
2017-07-27T02:34:48.381Z,66.9
2017-07-27T02:35:50.742Z,66.9
2017-07-27T02:36:53.127Z,66.9
2017-07-27T02:37:55.489Z,66.9
2017-07-27T02:38:57.534Z,66.9
2017-07-27T02:39:59.557Z,66.9
2017-07-27T02:41:01.585Z,66.8
2017-07-27T02:42:03.621Z,66.8
2017-07-27T02:43:05.968Z,66.9
2017-07-27T02:44:08.336Z,66.9
2017-07-27T02:45:10.713Z,66.9
2017-07-27T02:46:12.738Z,67
2017-07-27T02:47:15.120Z,66.9
2017-07-27T02:48:17.130Z,66.9
2017-07-27T02:49:19.161Z,66.9
2017-07-27T02:50:21.880Z,67
2017-07-27T02:51:24.240Z,67
2017-07-27T02:52:26.639Z,67
2017-07-27T02:53:28.661Z,67
2017-07-27T02:54:31.369Z,67.1
2017-07-27T02:55:33.734Z,67.1
2017-07-27T02:56:35.751Z,67.2
2017-07-27T02:57:37.789Z,67.2
2017-07-27T02:58:39.803Z,67.2
2017-07-27T02:59:41.825Z,67.2
2017-07-27T03:00:44.188Z,67.2
2017-07-27T03:01:46.544Z,67.2
2017-07-27T03:02:48.574Z,67.1
2017-07-27T03:03:50.588Z,67.2
2017-07-27T03:04:52.610Z,67.2
2017-07-27T03:05:55.306Z,67.1
2017-07-27T03:06:57.660Z,67.2
2017-07-27T03:07:59.689Z,67.1
2017-07-27T03:09:01.715Z,67.3
2017-07-27T03:10:03.745Z,67.2
2017-07-27T03:11:05.764Z,67.2
2017-07-27T03:12:07.787Z,67.2
2017-07-27T03:13:09.813Z,67.2
2017-07-27T03:14:12.171Z,67.2
2017-07-27T03:15:14.197Z,67.2
2017-07-27T03:16:16.230Z,67.3
2017-07-27T03:17:18.929Z,67.2
2017-07-27T03:18:20.949Z,67.3
2017-07-27T03:19:22.968Z,67.3
2017-07-27T03:20:25.324Z,67.1
2017-07-27T03:21:27.707Z,67.2
2017-07-27T03:22:30.081Z,67.2
2017-07-27T03:23:32.097Z,67.3
2017-07-27T03:24:34.120Z,67.2
2017-07-27T03:25:36.143Z,67.3
2017-07-27T03:26:38.174Z,67.2
2017-07-27T03:27:40.206Z,67.3
2017-07-27T03:28:42.892Z,67.4
2017-07-27T03:29:44.919Z,67.2
2017-07-27T03:30:47.281Z,67.3
2017-07-27T03:31:49.650Z,67.3
2017-07-27T03:32:51.682Z,67.3
2017-07-27T03:33:53.696Z,67.2
2017-07-27T03:34:55.727Z,67.2
2017-07-27T03:35:58.089Z,67.2
2017-07-27T03:37:00.115Z,67.2
2017-07-27T03:38:02.148Z,67.3
2017-07-27T03:39:04.506Z,67.2
2017-07-27T03:40:06.897Z,67.3
2017-07-27T03:41:08.920Z,67.2
2017-07-27T03:42:10.947Z,67.1
2017-07-27T03:43:12.980Z,67.4
2017-07-27T03:44:15.004Z,67.3
2017-07-27T03:45:17.370Z,67.3
2017-07-27T03:46:20.083Z,67.3
2017-07-27T03:47:22.094Z,67.3
2017-07-27T03:48:24.122Z,67.3
2017-07-27T03:49:26.142Z,67.3
2017-07-27T03:50:28.172Z,67.3
2017-07-27T03:51:30.539Z,67.3
2017-07-27T03:52:33.230Z,67.4
2017-07-27T03:53:35.263Z,67.4
2017-07-27T03:54:37.271Z,67.5
2017-07-27T03:55:39.625Z,67.4
2017-07-27T03:56:42.004Z,67.3
2017-07-27T03:57:44.355Z,67.3
2017-07-27T03:58:46.376Z,67.4
2017-07-27T03:59:48.415Z,67.3
2017-07-27T04:00:51.121Z,67.3
2017-07-27T04:01:53.485Z,67.5
2017-07-27T04:02:55.894Z,67.3
2017-07-27T04:03:57.912Z,67.5
2017-07-27T04:04:59.941Z,67.5
2017-07-27T04:06:01.972Z,67.5
2017-07-27T04:07:05.005Z,67.5
2017-07-27T04:08:07.358Z,67.6
2017-07-27T04:09:09.382Z,67.5
2017-07-27T04:10:11.415Z,67.5
2017-07-27T04:11:13.444Z,67.5
2017-07-27T04:12:15.807Z,67.4
2017-07-27T04:13:17.834Z,67.4
2017-07-27T04:14:19.856Z,67.4
2017-07-27T04:15:21.888Z,67.5
2017-07-27T04:16:24.259Z,67.6
2017-07-27T04:17:26.289Z,67.6
2017-07-27T04:18:28.320Z,67.6
2017-07-27T04:19:30.342Z,67.6
2017-07-27T04:20:32.364Z,67.6
2017-07-27T04:21:34.378Z,67.6
2017-07-27T04:22:36.396Z,67.6
2017-07-27T04:23:38.420Z,67.6
2017-07-27T04:24:40.450Z,67.6
2017-07-27T04:25:42.481Z,67.6
2017-07-27T04:26:44.499Z,67.6
2017-07-27T04:27:46.854Z,67.6
2017-07-27T04:28:48.874Z,67.6
2017-07-27T04:29:51.580Z,67.6
2017-07-27T04:30:53.606Z,67.6
2017-07-27T04:31:55.645Z,67.6
2017-07-27T04:32:58.397Z,67.6
2017-07-27T04:34:01.454Z,67.5
2017-07-27T04:35:04.482Z,67.6
2017-07-27T04:36:06.852Z,67.6
2017-07-27T04:37:08.895Z,67.7
2017-07-27T04:38:10.912Z,67.6
2017-07-27T04:39:12.945Z,67.6
2017-07-27T04:40:15.307Z,67.7
2017-07-27T04:41:17.334Z,67.7
2017-07-27T04:42:19.356Z,67.7
2017-07-27T04:43:21.381Z,67.7
2017-07-27T04:44:23.735Z,67.7
2017-07-27T04:45:26.105Z,67.6
2017-07-27T04:46:28.131Z,67.6
2017-07-27T04:47:31.180Z,67.7
2017-07-27T04:48:33.210Z,67.6
2017-07-27T04:49:35.250Z,67.5
2017-07-27T04:50:37.272Z,67.6
2017-07-27T04:51:39.980Z,67.5
2017-07-27T04:52:42.008Z,67.5
2017-07-27T04:53:44.375Z,67.6
2017-07-27T04:54:46.395Z,67.6
2017-07-27T04:55:48.427Z,67.5
2017-07-27T04:56:50.450Z,67.5
2017-07-27T04:57:52.812Z,67.5
2017-07-27T04:58:55.521Z,67.4
2017-07-27T04:59:57.891Z,67.4
2017-07-27T05:00:59.920Z,67.4
2017-07-27T05:02:01.941Z,67.3
2017-07-27T05:03:04.300Z,67.3
2017-07-27T05:04:06.320Z,67.2
2017-07-27T05:05:08.344Z,67.1
2017-07-27T05:06:10.717Z,67.2
2017-07-27T05:07:13.101Z,67.1
2017-07-27T05:08:15.136Z,67
2017-07-27T05:09:17.514Z,67
2017-07-27T05:10:19.530Z,67.1
2017-07-27T05:11:21.566Z,67
2017-07-27T05:12:23.605Z,67
2017-07-27T05:13:25.638Z,67.1
2017-07-27T05:14:27.700Z,67.1
2017-07-27T05:15:30.405Z,67
2017-07-27T05:16:33.133Z,67
2017-07-27T05:17:35.167Z,67
2017-07-27T05:18:37.525Z,67
2017-07-27T05:19:39.874Z,67
2017-07-27T05:20:41.906Z,67
2017-07-27T05:21:43.937Z,67
2017-07-27T05:22:45.964Z,66.9
2017-07-27T05:23:48.002Z,66.8
2017-07-27T05:24:50.026Z,66.9
2017-07-27T05:25:52.403Z,66.8
2017-07-27T05:26:54.441Z,66.8
2017-07-27T05:27:56.461Z,66.9
2017-07-27T05:28:58.830Z,66.8
2017-07-27T05:30:01.203Z,66.7
2017-07-27T05:31:03.234Z,66.7
2017-07-27T05:32:05.600Z,66.7
2017-07-27T05:33:07.618Z,66.7
2017-07-27T05:34:10.348Z,66.7
2017-07-27T05:35:12.404Z,66.5
2017-07-27T05:36:15.632Z,66.5
2017-07-27T05:37:22.822Z,66.5
2017-07-27T05:38:32.397Z,66.5
2017-07-27T05:39:34.428Z,66.5
2017-07-27T05:40:40.202Z,66.5
2017-07-27T05:41:48.486Z,66.5
2017-07-27T05:42:50.867Z,66.5
2017-07-27T05:43:52.885Z,66.4
2017-07-27T05:44:55.255Z,66.5
2017-07-27T05:45:57.284Z,66.4
2017-07-27T05:46:59.307Z,66.4
2017-07-27T05:48:01.328Z,66.4
2017-07-27T05:49:03.381Z,66.4
2017-07-27T05:50:05.754Z,66.4
2017-07-27T05:51:08.138Z,66.4
2017-07-27T05:52:10.502Z,66.4
2017-07-27T05:53:12.868Z,66.4
2017-07-27T05:54:14.910Z,66.6
2017-07-27T05:55:16.938Z,66.7
2017-07-27T05:56:18.962Z,66.6
2017-07-27T05:57:21.328Z,66.7
2017-07-27T05:58:23.350Z,66.6
2017-07-27T05:59:25.501Z,66.6
2017-07-27T06:00:27.830Z,66.6
2017-07-27T06:01:32.404Z,66.6
2017-07-27T06:02:40.995Z,66.5
2017-07-27T06:03:44.565Z,66.4
2017-07-27T06:04:49.356Z,66.5
2017-07-27T06:05:53.900Z,66.5
2017-07-27T06:06:55.933Z,66.5
2017-07-27T06:07:57.968Z,66.5
2017-07-27T06:09:00.351Z,66.5
2017-07-27T06:10:03.063Z,66.5
2017-07-27T06:11:05.150Z,66.6
2017-07-27T06:12:07.191Z,66.5
2017-07-27T06:13:09.223Z,66.5
2017-07-27T06:14:11.593Z,66.5
2017-07-27T06:15:13.631Z,66.4
2017-07-27T06:16:15.658Z,66.3
2017-07-27T06:17:18.024Z,66.4
2017-07-27T06:18:20.049Z,66.3
2017-07-27T06:19:22.083Z,66.3
2017-07-27T06:20:24.117Z,66.3
2017-07-27T06:21:26.147Z,66.3
2017-07-27T06:22:28.185Z,66.4
2017-07-27T06:23:30.219Z,66.4
2017-07-27T06:24:32.572Z,66.4
2017-07-27T06:25:34.607Z,66.4
2017-07-27T06:26:36.640Z,66.4
2017-07-27T06:27:39.025Z,66.6
2017-07-27T06:28:41.045Z,66.6
2017-07-27T06:29:43.074Z,66.5
2017-07-27T06:30:45.106Z,66.4
2017-07-27T06:31:47.124Z,66.5
2017-07-27T06:32:49.152Z,66.7
2017-07-27T06:33:51.185Z,66.6
2017-07-27T06:34:53.560Z,66.6
2017-07-27T06:35:55.595Z,66.6
2017-07-27T06:36:57.961Z,66.5
2017-07-27T06:37:59.995Z,66.5
2017-07-27T06:39:02.023Z,66.6
2017-07-27T06:40:04.388Z,66.7
2017-07-27T06:41:06.420Z,66.6
2017-07-27T06:42:08.803Z,66.6
2017-07-27T06:43:10.837Z,66.5
2017-07-27T06:44:12.879Z,66.4
2017-07-27T06:45:14.908Z,66.5
2017-07-27T06:46:16.945Z,66.4
2017-07-27T06:47:19.331Z,66.4
2017-07-27T06:48:21.378Z,66.5
2017-07-27T06:49:23.760Z,66.4
2017-07-27T06:50:25.793Z,66.5
2017-07-27T06:51:27.823Z,66.4
2017-07-27T06:52:29.852Z,66.5
2017-07-27T06:53:31.873Z,66.5
2017-07-27T06:54:33.903Z,66.5
2017-07-27T06:55:35.950Z,66.4
2017-07-27T06:56:38.326Z,66.4
2017-07-27T06:57:41.031Z,66.3
2017-07-27T06:58:43.408Z,66.2
2017-07-27T06:59:45.446Z,66.3
2017-07-27T07:00:47.484Z,66.3
2017-07-27T07:01:49.521Z,66.2
2017-07-27T07:02:51.559Z,66.4
2017-07-27T07:03:53.598Z,66.4
2017-07-27T07:04:55.625Z,66.4
2017-07-27T07:05:57.992Z,66.6
2017-07-27T07:07:00.717Z,66.4
2017-07-27T07:08:03.084Z,66.4
2017-07-27T07:09:05.456Z,66.3
2017-07-27T07:10:07.526Z,66.1
2017-07-27T07:11:10.243Z,66.1
2017-07-27T07:12:12.626Z,66.1
2017-07-27T07:13:14.657Z,66.1
2017-07-27T07:14:16.686Z,65.9
2017-07-27T07:15:19.061Z,66
2017-07-27T07:16:21.093Z,65.9
2017-07-27T07:17:23.468Z,65.9
2017-07-27T07:18:25.503Z,66
2017-07-27T07:19:27.869Z,66
2017-07-27T07:20:30.243Z,66.2
2017-07-27T07:21:32.289Z,66.2
2017-07-27T07:22:34.333Z,66.1
2017-07-27T07:23:36.711Z,66.3
2017-07-27T07:24:38.738Z,66.2
2017-07-27T07:25:40.784Z,66.1
2017-07-27T07:26:43.503Z,66
2017-07-27T07:27:45.554Z,66
2017-07-27T07:28:47.594Z,65.9
2017-07-27T07:29:49.623Z,66
2017-07-27T07:30:51.993Z,66
2017-07-27T07:31:54.364Z,66
2017-07-27T07:32:56.396Z,65.9
2017-07-27T07:33:58.433Z,65.9
2017-07-27T07:35:01.480Z,65.9
2017-07-27T07:36:03.850Z,65.9
2017-07-27T07:37:06.229Z,65.9
2017-07-27T07:38:08.252Z,65.9
2017-07-27T07:39:10.635Z,65.6
2017-07-27T07:40:13.004Z,65.6
2017-07-27T07:41:15.727Z,65.7
2017-07-27T07:42:17.765Z,65.7
2017-07-27T07:43:19.798Z,65.8
2017-07-27T07:44:21.839Z,65.8
2017-07-27T07:45:24.198Z,65.8
2017-07-27T07:46:26.242Z,65.8
2017-07-27T07:47:28.289Z,65.8
2017-07-27T07:48:30.314Z,65.8
2017-07-27T07:49:32.338Z,65.8
2017-07-27T07:50:34.711Z,65.8
2017-07-27T07:51:37.079Z,65.7
2017-07-27T07:52:39.125Z,65.7
2017-07-27T07:53:41.160Z,65.7
2017-07-27T07:54:43.205Z,65.4
2017-07-27T07:55:45.965Z,65.4
2017-07-27T07:56:48.694Z,65.4
2017-07-27T07:57:51.087Z,65.4
2017-07-27T07:58:53.120Z,65.4
2017-07-27T07:59:55.159Z,65.4
2017-07-27T08:00:57.223Z,65.4
2017-07-27T08:01:59.961Z,65.6
2017-07-27T08:03:01.987Z,65.3
2017-07-27T08:04:04.714Z,65.2
2017-07-27T08:05:06.791Z,65.2
2017-07-27T08:06:08.816Z,65.2
2017-07-27T08:07:11.191Z,65.2
2017-07-27T08:08:13.240Z,65.3
2017-07-27T08:09:15.604Z,65.2
2017-07-27T08:10:18.002Z,65.3
2017-07-27T08:11:20.046Z,65.2
2017-07-27T08:12:22.083Z,65.2
2017-07-27T08:13:24.466Z,65.2
2017-07-27T08:14:27.180Z,65.2
2017-07-27T08:15:29.223Z,65.1
2017-07-27T08:16:31.265Z,65.2
2017-07-27T08:17:33.650Z,65.2
2017-07-27T08:18:36.022Z,65.2
2017-07-27T08:19:38.401Z,65.3
2017-07-27T08:20:40.433Z,65.3
2017-07-27T08:21:42.799Z,65.3
2017-07-27T08:22:45.171Z,65.5
2017-07-27T08:23:47.203Z,65.5
2017-07-27T08:24:49.246Z,65.3
2017-07-27T08:25:51.680Z,65.2
2017-07-27T08:26:53.710Z,65.1
2017-07-27T08:27:56.104Z,64.9
2017-07-27T08:28:58.831Z,64.8
2017-07-27T08:30:00.857Z,64.8
2017-07-27T08:31:02.895Z,64.8
2017-07-27T08:32:04.929Z,64.9
2017-07-27T08:33:07.305Z,64.9
2017-07-27T08:34:09.688Z,65
2017-07-27T08:35:11.721Z,65.2
2017-07-27T08:36:14.092Z,65.2
2017-07-27T08:37:16.137Z,65.3
2017-07-27T08:38:18.159Z,65.2
2017-07-27T08:39:20.538Z,65.1
2017-07-27T08:40:22.575Z,64.8
2017-07-27T08:41:24.612Z,64.7
2017-07-27T08:42:26.986Z,64.9
2017-07-27T08:43:29.016Z,64.9
2017-07-27T08:44:31.056Z,65
2017-07-27T08:45:33.132Z,64.9
2017-07-27T08:46:35.488Z,64.8
2017-07-27T08:47:37.533Z,64.8
2017-07-27T08:48:39.910Z,64.7
2017-07-27T08:49:42.026Z,64.4
2017-07-27T08:50:44.139Z,64.2
2017-07-27T08:51:46.517Z,64.4
2017-07-27T08:52:48.556Z,64.4
2017-07-27T08:53:50.590Z,64.5
2017-07-27T08:54:53.348Z,64.4
2017-07-27T08:55:55.441Z,64.1
2017-07-27T08:56:57.470Z,64.1
2017-07-27T08:57:59.841Z,64.3
2017-07-27T08:59:01.882Z,64.2
2017-07-27T09:00:03.921Z,64.3
2017-07-27T09:01:05.958Z,64.1
2017-07-27T09:02:08.321Z,64
2017-07-27T09:03:10.363Z,63.8
2017-07-27T09:04:12.400Z,64
2017-07-27T09:05:14.770Z,63.8
2017-07-27T09:06:16.809Z,63.8
2017-07-27T09:07:19.526Z,64
2017-07-27T09:08:21.561Z,64.1
2017-07-27T09:09:23.596Z,63.8
2017-07-27T09:10:25.623Z,63.8
2017-07-27T09:11:27.669Z,64
2017-07-27T09:12:29.701Z,64.1
2017-07-27T09:13:32.076Z,64.3
2017-07-27T09:14:34.109Z,64.3
2017-07-27T09:15:36.483Z,64.3
2017-07-27T09:16:38.854Z,64.2
2017-07-27T09:17:40.884Z,64.2
2017-07-27T09:18:42.916Z,64.1
2017-07-27T09:19:44.960Z,64.2
2017-07-27T09:20:46.992Z,64.1
2017-07-27T09:21:49.362Z,64.2
2017-07-27T09:22:51.746Z,64.3
2017-07-27T09:23:53.775Z,64.4
2017-07-27T09:24:55.815Z,64.2
2017-07-27T09:25:57.844Z,64.2
2017-07-27T09:27:00.562Z,64.4
2017-07-27T09:28:03.273Z,64.4
2017-07-27T09:29:05.301Z,64.4
2017-07-27T09:30:07.332Z,64.3
2017-07-27T09:31:09.372Z,64.4
2017-07-27T09:32:11.397Z,64.4
2017-07-27T09:33:13.433Z,64.4
2017-07-27T09:34:15.459Z,64.5
2017-07-27T09:35:17.498Z,64.3
2017-07-27T09:36:19.872Z,64.4
2017-07-27T09:37:21.905Z,64.4
2017-07-27T09:38:23.940Z,64.5
2017-07-27T09:39:26.325Z,64.5
2017-07-27T09:40:28.367Z,64.5
2017-07-27T09:41:30.747Z,64.4
2017-07-27T09:42:32.787Z,64.3
2017-07-27T09:43:34.840Z,64.3
2017-07-27T09:44:37.208Z,64.4
2017-07-27T09:45:39.226Z,64.5
2017-07-27T09:46:41.260Z,64.6
2017-07-27T09:47:43.309Z,64.6
2017-07-27T09:48:45.676Z,64.5
2017-07-27T09:49:48.051Z,64.4
2017-07-27T09:50:50.086Z,64.4
2017-07-27T09:51:52.123Z,64.4
2017-07-27T09:52:54.149Z,64.4
2017-07-27T09:53:56.171Z,64.5
2017-07-27T09:54:58.207Z,64.6
2017-07-27T09:56:00.570Z,64.7
2017-07-27T09:57:03.292Z,64.7
2017-07-27T09:58:05.330Z,64.7
2017-07-27T09:59:07.355Z,64.6
2017-07-27T10:00:09.728Z,64.6
2017-07-27T10:01:11.764Z,64.6
2017-07-27T10:02:13.799Z,64.6
2017-07-27T10:03:15.832Z,64.6
2017-07-27T10:04:17.861Z,64.7
2017-07-27T10:05:19.886Z,64.6
2017-07-27T10:06:21.922Z,64.7
2017-07-27T10:07:24.298Z,64.8
2017-07-27T10:08:26.333Z,64.8
2017-07-27T10:09:28.707Z,64.7
2017-07-27T10:10:30.749Z,64.8
2017-07-27T10:11:33.120Z,64.8
2017-07-27T10:12:35.502Z,65
2017-07-27T10:13:37.525Z,65.1
2017-07-27T10:14:39.562Z,65.1
2017-07-27T10:15:41.598Z,65.2
2017-07-27T10:16:43.968Z,65.1
2017-07-27T10:17:46.357Z,65.2
2017-07-27T10:18:48.392Z,65.2
2017-07-27T10:19:50.771Z,65.2
2017-07-27T10:20:52.806Z,65.1
2017-07-27T10:21:55.171Z,65
2017-07-27T10:22:57.206Z,65.1
2017-07-27T10:23:59.569Z,65
2017-07-27T10:25:01.633Z,65.1
2017-07-27T10:26:03.996Z,65.1
2017-07-27T10:27:06.403Z,65.3
2017-07-27T10:28:09.139Z,65.3
2017-07-27T10:29:11.170Z,65.3
2017-07-27T10:30:13.205Z,65.3
2017-07-27T10:31:15.929Z,65.5
2017-07-27T10:32:18.310Z,65.6
2017-07-27T10:33:20.345Z,65.7
2017-07-27T10:34:22.718Z,65.8
2017-07-27T10:35:24.755Z,65.9
2017-07-27T10:36:26.804Z,66
2017-07-27T10:37:28.841Z,66.1
2017-07-27T10:38:30.874Z,66.2
2017-07-27T10:39:32.910Z,66
2017-07-27T10:40:35.305Z,66
2017-07-27T10:41:37.337Z,66.1
2017-07-27T10:42:39.711Z,66.2
2017-07-27T10:43:41.751Z,66.2
2017-07-27T10:44:44.462Z,66.3
2017-07-27T10:45:46.516Z,66.4
2017-07-27T10:46:48.552Z,66.4
2017-07-27T10:47:50.596Z,66.3
2017-07-27T10:48:52.629Z,66.1
2017-07-27T10:49:54.673Z,66.1
2017-07-27T10:50:56.720Z,66
2017-07-27T10:51:59.448Z,66
2017-07-27T10:53:01.491Z,66.1
2017-07-27T10:54:03.863Z,66.1
2017-07-27T10:55:05.910Z,66.1
2017-07-27T10:56:08.636Z,66.2
2017-07-27T10:57:10.655Z,66.2
2017-07-27T10:58:13.043Z,66.3
2017-07-27T10:59:15.431Z,66.3
2017-07-27T11:00:18.157Z,66.4
2017-07-27T11:01:20.528Z,66.4
2017-07-27T11:02:22.572Z,66.3
2017-07-27T11:03:24.615Z,66.2
2017-07-27T11:04:26.649Z,66.1
2017-07-27T11:05:28.693Z,66.2
2017-07-27T11:06:30.722Z,66.4
2017-07-27T11:07:32.759Z,66.3
2017-07-27T11:08:34.806Z,66.1
2017-07-27T11:09:36.849Z,66.1
2017-07-27T11:10:38.893Z,66.4
2017-07-27T11:11:40.930Z,66.6
2017-07-27T11:12:42.986Z,66.7
2017-07-27T11:13:45.375Z,66.4
2017-07-27T11:14:47.421Z,66.4
2017-07-27T11:15:49.468Z,66.5
2017-07-27T11:16:51.849Z,66.4
2017-07-27T11:17:54.225Z,66.3
2017-07-27T11:18:56.269Z,66.3
2017-07-27T11:19:58.339Z,66.3
2017-07-27T11:21:00.374Z,66.3
2017-07-27T11:22:02.761Z,66.3
2017-07-27T11:23:04.809Z,66
2017-07-27T11:24:06.853Z,65.8
2017-07-27T11:25:08.890Z,65.8
2017-07-27T11:26:10.936Z,65.6
2017-07-27T11:27:13.326Z,65.5
2017-07-27T11:28:15.370Z,65.4
2017-07-27T11:29:17.401Z,65.4
2017-07-27T11:30:19.452Z,65.5
2017-07-27T11:31:21.494Z,65.5
2017-07-27T11:32:23.529Z,65.4
2017-07-27T11:33:25.917Z,65.4
2017-07-27T11:34:28.304Z,65.5
2017-07-27T11:35:30.697Z,65.6
2017-07-27T11:36:33.413Z,65.6
2017-07-27T11:37:35.449Z,65.4
2017-07-27T11:38:37.511Z,65.3
2017-07-27T11:39:39.541Z,65.1
2017-07-27T11:40:41.923Z,65
2017-07-27T11:41:44.432Z,65.1
2017-07-27T11:42:47.043Z,65.1
2017-07-27T11:43:49.141Z,65.3
2017-07-27T11:44:51.536Z,65.2
2017-07-27T11:45:54.301Z,65.3
2017-07-27T11:46:56.347Z,65.3
2017-07-27T11:47:58.401Z,65.4
2017-07-27T11:49:00.517Z,65.1
2017-07-27T11:50:02.905Z,64.8
2017-07-27T11:51:05.283Z,64.7
2017-07-27T11:52:07.327Z,64.7
2017-07-27T11:53:09.960Z,64.7
2017-07-27T11:54:13.398Z,64.1
2017-07-27T11:55:16.734Z,63.8
2017-07-27T11:56:19.115Z,63.7
2017-07-27T11:57:21.508Z,63.9
2017-07-27T11:58:23.899Z,63.9
2017-07-27T11:59:26.280Z,63.7
2017-07-27T12:00:28.323Z,63.5
2017-07-27T12:01:30.722Z,63.3
2017-07-27T12:02:33.103Z,63.3
2017-07-27T12:03:35.492Z,63.2
2017-07-27T12:04:37.892Z,63.4
2017-07-27T12:05:40.267Z,63.8
2017-07-27T12:06:42.319Z,63.8
2017-07-27T12:07:44.363Z,63.8
2017-07-27T12:08:46.402Z,63.4
2017-07-27T12:09:48.448Z,63
2017-07-27T12:10:50.488Z,62.8
2017-07-27T12:11:52.534Z,62.3
2017-07-27T12:12:54.586Z,62.3
2017-07-27T12:13:56.962Z,62.2
2017-07-27T12:14:59.344Z,62
2017-07-27T12:16:01.387Z,61.8
2017-07-27T12:17:03.435Z,61.5
2017-07-27T12:18:05.478Z,61.5
2017-07-27T12:19:07.516Z,61.7
2017-07-27T12:20:10.040Z,62
2017-07-27T12:21:12.534Z,62
2017-07-27T12:22:14.913Z,62.1
2017-07-27T12:23:16.961Z,61.8
2017-07-27T12:24:19.360Z,61.4
2017-07-27T12:25:21.398Z,61.1
2017-07-27T12:26:23.452Z,60.9
2017-07-27T12:27:25.485Z,60.8
2017-07-27T12:28:28.207Z,60.7
2017-07-27T12:29:30.280Z,60.5
2017-07-27T12:30:32.655Z,60.4
2017-07-27T12:31:35.379Z,60.5
2017-07-27T12:32:37.430Z,60.7
2017-07-27T12:33:40.488Z,60.7
2017-07-27T12:34:42.526Z,60.5
2017-07-27T12:35:44.564Z,60.3
2017-07-27T12:36:46.998Z,60.1
2017-07-27T12:37:49.035Z,59.8
2017-07-27T12:38:51.072Z,59.6
2017-07-27T12:39:54.039Z,59.5
2017-07-27T12:40:56.416Z,59.4
2017-07-27T12:41:58.457Z,59.3
2017-07-27T12:43:00.528Z,59.3
2017-07-27T12:44:02.572Z,59.1
2017-07-27T12:45:04.622Z,58.8
2017-07-27T12:46:06.661Z,58.8
2017-07-27T12:47:09.051Z,58.6
2017-07-27T12:48:11.102Z,58.6
2017-07-27T12:49:13.156Z,58.8
2017-07-27T12:50:15.192Z,58.8
2017-07-27T12:51:17.236Z,58.7
2017-07-27T12:52:19.436Z,58.8
2017-07-27T12:53:21.562Z,58.9
2017-07-27T12:54:23.741Z,59
2017-07-27T12:55:26.139Z,59
2017-07-27T12:56:28.863Z,59
2017-07-27T12:57:30.905Z,59
2017-07-27T12:58:32.960Z,58.9
2017-07-27T12:59:35.001Z,58.9
2017-07-27T13:00:37.380Z,59.1
2017-07-27T13:01:39.415Z,59.1
2017-07-27T13:02:41.505Z,58.8
2017-07-27T13:03:43.899Z,58.9
2017-07-27T13:04:45.962Z,58.9
2017-07-27T13:05:48.402Z,59
2017-07-27T13:06:50.440Z,59
2017-07-27T13:07:52.487Z,58.9
2017-07-27T13:08:54.535Z,59
2017-07-27T13:09:57.507Z,59.1
2017-07-27T13:10:59.601Z,58.8
2017-07-27T13:12:02.004Z,58.8
2017-07-27T13:13:04.053Z,58.9
2017-07-27T13:14:06.462Z,58.9
2017-07-27T13:15:09.899Z,58.9
2017-07-27T13:16:13.444Z,59
2017-07-27T13:17:45.750Z,58.9
2017-07-27T13:18:48.486Z,58.9
2017-07-27T13:19:50.872Z,59.1
2017-07-27T13:20:52.919Z,58.9
2017-07-27T13:21:54.954Z,58.8
2017-07-27T13:22:57.013Z,58.9
2017-07-27T13:23:59.046Z,59
2017-07-27T13:25:01.432Z,59.1
2017-07-27T13:26:04.435Z,59.1
2017-07-27T13:27:08.940Z,59.2
2017-07-27T13:28:11.145Z,59.2
2017-07-27T13:29:13.615Z,59.3
2017-07-27T13:30:15.750Z,59.2
2017-07-27T13:31:18.136Z,59.3
2017-07-27T13:32:20.170Z,59.3
2017-07-27T13:33:22.216Z,59.2
2017-07-27T13:34:24.596Z,59.2
2017-07-27T13:35:26.981Z,59.3
2017-07-27T13:36:29.363Z,59.3
2017-07-27T13:37:31.407Z,59.5
2017-07-27T13:38:33.448Z,59.4
2017-07-27T13:39:36.171Z,59.3
2017-07-27T13:40:38.213Z,59.3
2017-07-27T13:41:40.285Z,59.2
2017-07-27T13:42:42.330Z,59.1
2017-07-27T13:43:44.369Z,58.8
2017-07-27T13:44:46.749Z,58.7
2017-07-27T13:45:48.814Z,58.8
2017-07-27T13:46:50.853Z,58.6
2017-07-27T13:47:52.903Z,58.6
2017-07-27T13:48:54.947Z,58.7
2017-07-27T13:49:56.988Z,58.8
2017-07-27T13:50:59.729Z,59
2017-07-27T13:52:02.443Z,59.1
2017-07-27T13:53:04.819Z,59.2